createdAt,value
2018-01-01T00:01:15.033Z,3.37
2018-01-01T00:03:43.206Z,3.29
2018-01-01T00:06:11.377Z,3.25
2018-01-01T00:08:39.548Z,3.21
2018-01-01T00:11:07.723Z,3.11
2018-01-01T00:13:35.890Z,3.10
2018-01-01T00:16:04.083Z,3.07
2018-01-01T00:18:32.247Z,3.02
2018-01-01T00:21:00.437Z,3.02
2018-01-01T00:23:28.600Z,2.93
2018-01-01T00:25:56.758Z,2.93
2018-01-01T00:28:24.942Z,2.84
2018-01-01T00:30:53.138Z,2.80
2018-01-01T00:33:21.302Z,2.80
2018-01-01T00:35:49.523Z,2.77
2018-01-01T00:38:18.537Z,2.81
2018-01-01T00:40:46.723Z,2.84
2018-01-01T00:43:14.890Z,2.85
2018-01-01T00:45:43.060Z,2.96
2018-01-01T00:48:11.985Z,2.98
2018-01-01T00:50:40.162Z,3.10
2018-01-01T00:53:08.367Z,3.18
2018-01-01T00:55:36.541Z,3.27
2018-01-01T00:58:04.703Z,3.39
2018-01-01T01:00:32.896Z,3.45
2018-01-01T01:03:01.079Z,3.55
2018-01-01T01:05:29.255Z,3.69
2018-01-01T01:07:58.193Z,3.67
2018-01-01T01:10:26.361Z,3.73
2018-01-01T01:12:54.564Z,3.77
2018-01-01T01:15:22.725Z,3.84
2018-01-01T01:17:50.926Z,3.97
2018-01-01T01:20:19.097Z,4.09
2018-01-01T01:22:48.056Z,4.11
2018-01-01T01:25:16.233Z,4.17
2018-01-01T01:27:44.415Z,4.19
2018-01-01T01:30:12.575Z,4.15
2018-01-01T01:32:40.768Z,4.33
2018-01-01T01:35:08.930Z,4.37
2018-01-01T01:37:37.945Z,4.37
2018-01-01T01:40:06.145Z,4.33
2018-01-01T01:42:34.316Z,4.10
2018-01-01T01:45:02.497Z,4.03
2018-01-01T01:47:30.684Z,3.88
2018-01-01T01:49:59.624Z,3.93
2018-01-01T01:52:27.809Z,3.87
2018-01-01T01:54:55.978Z,4.02
2018-01-01T01:57:24.153Z,3.96
2018-01-01T01:59:52.311Z,3.95
2018-01-01T02:02:20.473Z,4.15
2018-01-01T02:04:48.633Z,4.25
2018-01-01T02:07:17.574Z,4.29
2018-01-01T02:09:45.737Z,4.34
2018-01-01T02:12:13.932Z,4.37
2018-01-01T02:14:42.124Z,4.27
2018-01-01T02:17:10.307Z,4.27
2018-01-01T02:19:39.259Z,4.50
2018-01-01T02:22:08.184Z,4.52
2018-01-01T02:24:42.743Z,4.59
2018-01-01T02:27:10.905Z,4.74
2018-01-01T02:29:39.829Z,4.83
2018-01-01T02:32:25.865Z,4.83
2018-01-01T02:34:54.034Z,4.79
2018-01-01T02:37:22.214Z,4.78
2018-01-01T02:39:50.382Z,4.72
2018-01-01T02:42:18.545Z,4.78
2018-01-01T02:44:46.705Z,4.78
2018-01-01T02:47:14.866Z,4.81
2018-01-01T02:49:43.082Z,4.86
2018-01-01T02:52:11.249Z,4.78
2018-01-01T02:54:39.432Z,4.79
2018-01-01T02:57:07.597Z,4.90
2018-01-01T02:59:35.758Z,4.93
2018-01-01T03:02:03.926Z,4.91
2018-01-01T03:04:32.126Z,4.84
2018-01-01T03:07:00.299Z,4.84
2018-01-01T03:09:28.463Z,4.75
2018-01-01T03:11:56.653Z,4.72
2018-01-01T03:14:24.823Z,4.72
2018-01-01T03:16:52.986Z,4.79
2018-01-01T03:19:21.150Z,4.77
2018-01-01T03:21:49.317Z,4.72
2018-01-01T03:24:17.488Z,4.64
2018-01-01T03:26:45.658Z,4.78
2018-01-01T03:29:13.833Z,4.78
2018-01-01T03:31:41.993Z,4.82
2018-01-01T03:34:10.183Z,4.69
2018-01-01T03:36:38.341Z,4.81
2018-01-01T03:39:06.501Z,4.82
2018-01-01T03:41:35.442Z,4.80
2018-01-01T03:44:03.669Z,4.83
2018-01-01T03:46:32.595Z,4.80
2018-01-01T03:49:00.761Z,4.72
2018-01-01T03:51:28.924Z,4.70
2018-01-01T03:53:57.111Z,4.66
2018-01-01T03:56:25.283Z,4.60
2018-01-01T03:58:53.438Z,4.57
2018-01-01T04:01:22.365Z,4.53
2018-01-01T04:03:50.517Z,4.49
2018-01-01T04:06:18.685Z,4.45
2018-01-01T04:08:46.877Z,4.42
2018-01-01T04:11:15.062Z,4.44
2018-01-01T04:13:43.275Z,4.45
2018-01-01T04:16:11.438Z,4.46
2018-01-01T04:18:39.631Z,4.47
2018-01-01T04:21:07.792Z,4.41
2018-01-01T04:23:35.953Z,4.39
2018-01-01T04:26:04.886Z,4.42
2018-01-01T04:28:33.818Z,4.42
2018-01-01T04:31:01.986Z,4.39
2018-01-01T04:33:30.145Z,4.28
2018-01-01T04:35:58.340Z,4.20
2018-01-01T04:38:26.504Z,4.19
2018-01-01T04:40:54.705Z,4.15
2018-01-01T04:43:22.858Z,4.09
2018-01-01T04:45:51.059Z,4.05
2018-01-01T04:48:19.237Z,4.09
2018-01-01T04:50:47.398Z,4.29
2018-01-01T04:53:15.565Z,4.28
2018-01-01T04:55:43.728Z,4.41
2018-01-01T04:58:11.915Z,4.49
2018-01-01T05:00:40.078Z,4.53
2018-01-01T05:03:08.242Z,4.50
2018-01-01T05:05:36.445Z,4.41
2018-01-01T05:08:04.604Z,4.32
2018-01-01T05:10:32.757Z,4.34
2018-01-01T05:13:00.925Z,4.30
2018-01-01T05:15:29.906Z,4.29
2018-01-01T05:17:58.846Z,4.27
2018-01-01T05:20:27.010Z,4.20
2018-01-01T05:22:55.162Z,4.26
2018-01-01T05:25:23.326Z,4.35
2018-01-01T05:27:52.266Z,4.35
2018-01-01T05:30:20.433Z,4.30
2018-01-01T05:32:48.612Z,4.23
2018-01-01T05:35:16.799Z,4.20
2018-01-01T05:37:44.962Z,4.20
2018-01-01T05:40:13.135Z,4.19
2018-01-01T05:42:41.309Z,4.16
2018-01-01T05:45:09.471Z,4.18
2018-01-01T05:47:37.647Z,4.18
2018-01-01T05:50:05.806Z,4.21
2018-01-01T05:52:33.968Z,4.23
2018-01-01T05:55:02.894Z,4.23
2018-01-01T05:57:31.049Z,4.25
2018-01-01T05:59:59.207Z,4.24
2018-01-01T06:02:28.137Z,4.37
2018-01-01T06:04:56.300Z,4.51
2018-01-01T06:07:24.471Z,4.64
2018-01-01T06:09:52.637Z,4.76
2018-01-01T06:12:20.797Z,4.89
2018-01-01T06:14:48.958Z,4.85
2018-01-01T06:17:17.935Z,4.92
2018-01-01T06:19:46.099Z,4.93
2018-01-01T06:22:14.257Z,4.95
2018-01-01T06:24:42.414Z,5.03
2018-01-01T06:27:10.581Z,5.07
2018-01-01T06:29:38.789Z,5.04
2018-01-01T06:32:06.946Z,5.01
2018-01-01T06:34:35.133Z,5.00
2018-01-01T06:37:03.296Z,4.95
2018-01-01T06:39:31.470Z,5.02
2018-01-01T06:41:59.628Z,5.05
2018-01-01T06:44:27.793Z,5.15
2018-01-01T06:46:55.971Z,5.13
2018-01-01T06:49:24.124Z,5.23
2018-01-01T06:51:53.034Z,5.15
2018-01-01T06:54:21.194Z,5.07
2018-01-01T06:56:50.118Z,5.04
2018-01-01T06:59:18.535Z,5.04
2018-01-01T07:01:46.721Z,5.11
2018-01-01T07:04:14.882Z,5.15
2018-01-01T07:06:43.037Z,5.22
2018-01-01T07:09:11.978Z,5.33
2018-01-01T07:11:40.904Z,5.40
2018-01-01T07:14:09.081Z,5.44
2018-01-01T07:16:37.238Z,5.49
2018-01-01T07:19:05.403Z,5.55
2018-01-01T07:21:33.562Z,5.62
2018-01-01T07:24:02.495Z,5.61
2018-01-01T07:26:30.645Z,5.65
2018-01-01T07:28:58.817Z,5.62
2018-01-01T07:31:27.010Z,5.61
2018-01-01T07:33:55.333Z,5.59
2018-01-01T07:36:23.498Z,5.72
2018-01-01T07:38:51.669Z,5.73
2018-01-01T07:41:19.822Z,5.71
2018-01-01T07:43:47.970Z,5.71
2018-01-01T07:46:16.126Z,5.85
2018-01-01T07:48:45.057Z,5.92
2018-01-01T07:51:13.209Z,6.08
2018-01-01T07:53:41.363Z,6.10
2018-01-01T07:56:10.286Z,6.13
2018-01-01T07:58:38.450Z,6.09
2018-01-01T08:01:06.616Z,6.06
2018-01-01T08:03:35.538Z,5.99
2018-01-01T08:06:03.784Z,6.03
2018-01-01T08:08:32.709Z,6.08
2018-01-01T08:11:00.861Z,6.16
2018-01-01T08:13:29.025Z,6.18
2018-01-01T08:15:57.953Z,6.26
2018-01-01T08:18:26.125Z,6.26
2018-01-01T08:20:54.272Z,6.35
2018-01-01T08:23:22.430Z,6.30
2018-01-01T08:25:51.356Z,6.34
2018-01-01T08:28:19.510Z,6.34
2018-01-01T08:30:47.673Z,6.43
2018-01-01T08:33:16.600Z,6.45
2018-01-01T08:35:44.758Z,6.41
2018-01-01T08:38:12.921Z,6.51
2018-01-01T08:40:42.721Z,6.36
2018-01-01T08:43:11.660Z,6.34
2018-01-01T08:45:40.618Z,6.45
2018-01-01T08:48:09.537Z,6.45
2018-01-01T08:50:37.689Z,6.39
2018-01-01T08:53:05.842Z,6.31
2018-01-01T08:55:34.787Z,6.24
2018-01-01T08:58:02.943Z,6.22
2018-01-01T09:00:31.132Z,6.20
2018-01-01T09:02:59.296Z,6.16
2018-01-01T09:05:27.455Z,6.18
2018-01-01T09:07:55.652Z,6.23
2018-01-01T09:10:23.833Z,6.20
2018-01-01T09:12:52.025Z,6.23
2018-01-01T09:15:20.218Z,6.30
2018-01-01T09:17:48.373Z,6.32
2018-01-01T09:20:16.535Z,6.37
2018-01-01T09:22:44.697Z,6.48
2018-01-01T09:25:12.868Z,6.18
2018-01-01T09:27:41.046Z,6.16
2018-01-01T09:30:09.219Z,6.23
2018-01-01T09:32:37.381Z,6.28
2018-01-01T09:35:05.541Z,6.29
2018-01-01T09:37:34.469Z,6.36
2018-01-01T09:40:02.649Z,6.42
2018-01-01T09:42:30.819Z,6.39
2018-01-01T09:44:58.983Z,6.40
2018-01-01T09:47:27.214Z,6.43
2018-01-01T09:49:55.382Z,6.39
2018-01-01T09:52:23.545Z,6.52
2018-01-01T09:54:51.709Z,6.64
2018-01-01T09:57:20.934Z,6.72
2018-01-01T09:59:49.101Z,6.78
2018-01-01T10:02:17.265Z,6.88
2018-01-01T10:04:45.460Z,6.90
2018-01-01T10:07:14.428Z,6.98
2018-01-01T10:09:42.676Z,7.07
2018-01-01T10:12:10.853Z,7.10
2018-01-01T10:14:39.020Z,7.25
2018-01-01T10:17:07.176Z,7.18
2018-01-01T10:19:35.334Z,7.15
2018-01-01T10:22:04.265Z,7.18
2018-01-01T10:24:32.436Z,7.28
2018-01-01T10:27:00.622Z,7.21
2018-01-01T10:29:28.786Z,7.18
2018-01-01T10:31:56.949Z,7.19
2018-01-01T10:34:25.105Z,7.18
2018-01-01T10:36:54.030Z,7.19
2018-01-01T10:39:22.306Z,7.21
2018-01-01T10:41:50.466Z,7.25
2018-01-01T10:44:18.622Z,7.27
2018-01-01T10:46:47.561Z,7.34
2018-01-01T10:49:15.732Z,7.40
2018-01-01T10:51:43.955Z,7.44
2018-01-01T10:54:12.888Z,7.51
2018-01-01T10:56:41.062Z,7.46
2018-01-01T10:59:09.232Z,7.56
2018-01-01T11:01:37.408Z,7.60
2018-01-01T11:04:05.594Z,7.74
2018-01-01T11:06:33.782Z,7.80
2018-01-01T11:09:01.958Z,7.95
2018-01-01T11:11:30.119Z,8.13
2018-01-01T11:13:58.283Z,8.23
2018-01-01T11:16:26.465Z,8.48
2018-01-01T11:18:54.649Z,8.47
2018-01-01T11:21:23.596Z,8.50
2018-01-01T11:23:52.525Z,8.61
2018-01-01T11:26:20.729Z,8.65
2018-01-01T11:28:48.875Z,8.59
2018-01-01T11:31:17.042Z,8.55
2018-01-01T11:33:45.198Z,8.58
2018-01-01T11:54:38.385Z,8.74
2018-01-01T11:57:06.546Z,8.73
2018-01-01T11:59:35.499Z,8.74
2018-01-01T12:02:03.675Z,8.75
2018-01-01T12:04:31.838Z,8.77
2018-01-01T12:07:00.018Z,8.89
2018-01-01T12:09:28.942Z,8.84
2018-01-01T12:11:57.855Z,8.92
2018-01-01T12:14:26.028Z,8.87
2018-01-01T12:16:54.203Z,8.79
2018-01-01T12:19:22.386Z,8.87
2018-01-01T12:21:50.548Z,8.85
2018-01-01T12:24:19.494Z,8.90
2018-01-01T12:26:47.654Z,8.98
2018-01-01T12:29:15.838Z,8.98
2018-01-01T12:31:44.009Z,9.03
2018-01-01T12:34:12.171Z,9.03
2018-01-01T12:36:40.338Z,9.04
2018-01-01T12:39:08.494Z,9.02
2018-01-01T12:41:36.643Z,9.07
2018-01-01T12:44:05.611Z,9.09
2018-01-01T12:46:33.825Z,9.18
2018-01-01T12:49:02.730Z,9.19
2018-01-01T12:51:30.887Z,9.22
2018-01-01T12:53:59.818Z,9.25
2018-01-01T12:56:28.004Z,9.38
2018-01-01T12:58:56.173Z,9.46
2018-01-01T13:01:24.335Z,9.53
2018-01-01T13:03:52.488Z,9.56
2018-01-01T13:06:21.006Z,9.49
2018-01-01T13:08:49.184Z,9.23
2018-01-01T13:11:17.346Z,9.09
2018-01-01T13:13:45.512Z,9.03
2018-01-01T13:16:13.672Z,8.98
2018-01-01T13:18:41.823Z,8.99
2018-01-01T13:21:10.764Z,8.96
2018-01-01T13:23:38.921Z,8.94
2018-01-01T13:26:07.111Z,8.87
2018-01-01T13:28:35.277Z,8.83
2018-01-01T13:31:03.458Z,8.92
2018-01-01T13:33:31.631Z,8.90
2018-01-01T13:35:59.786Z,8.81
2018-01-01T13:38:27.946Z,8.83
2018-01-01T13:40:56.108Z,8.82
2018-01-01T13:43:25.062Z,8.83
2018-01-01T13:45:53.216Z,8.83
2018-01-01T13:48:21.370Z,8.81
2018-01-01T13:50:49.526Z,8.76
2018-01-01T13:53:18.457Z,8.74
2018-01-01T13:55:46.625Z,8.72
2018-01-01T13:58:15.052Z,8.71
2018-01-01T14:00:44.010Z,8.70
2018-01-01T14:03:12.206Z,8.67
2018-01-01T14:05:41.159Z,8.56
2018-01-01T14:08:09.313Z,8.46
2018-01-01T14:10:37.514Z,8.48
2018-01-01T14:13:05.697Z,8.41
2018-01-01T14:15:34.644Z,8.33
2018-01-01T14:18:02.836Z,8.32
2018-01-01T14:20:31.013Z,8.22
2018-01-01T14:22:59.368Z,8.21
2018-01-01T14:25:28.290Z,8.23
2018-01-01T14:27:56.450Z,8.15
2018-01-01T14:30:24.694Z,8.07
2018-01-01T14:32:53.666Z,8.04
2018-01-01T14:35:21.846Z,8.01
2018-01-01T14:37:50.061Z,8.08
2018-01-01T14:40:18.233Z,8.01
2018-01-01T14:42:46.400Z,7.93
2018-01-01T14:45:15.339Z,7.95
2018-01-01T14:47:43.500Z,7.92
2018-01-01T14:50:11.662Z,7.85
2018-01-01T14:52:40.019Z,7.72
2018-01-01T14:55:08.997Z,7.72
2018-01-01T14:57:37.343Z,7.73
2018-01-01T15:00:05.519Z,7.70
2018-01-01T15:02:33.707Z,7.66
2018-01-01T15:05:01.923Z,7.62
2018-01-01T15:07:30.283Z,7.56
2018-01-01T15:09:59.216Z,7.50
2018-01-01T15:12:27.798Z,7.43
2018-01-01T15:14:55.961Z,7.42
2018-01-01T15:17:24.147Z,7.30
2018-01-01T15:19:52.333Z,7.28
2018-01-01T15:22:20.545Z,7.25
2018-01-01T15:24:48.725Z,7.19
2018-01-01T15:27:16.889Z,7.10
2018-01-01T15:29:45.050Z,7.08
2018-01-01T15:32:13.214Z,7.07
2018-01-01T15:34:41.385Z,7.01
2018-01-01T15:37:09.569Z,6.95
2018-01-01T15:39:37.779Z,6.89
2018-01-01T15:42:06.714Z,6.92
2018-01-01T15:44:34.881Z,6.87
2018-01-01T15:47:03.048Z,6.93
2018-01-01T15:49:31.240Z,6.92
2018-01-01T15:51:59.420Z,6.98
2018-01-01T15:54:27.583Z,6.91
2018-01-01T15:56:55.870Z,6.90
2018-01-01T15:59:24.065Z,6.85
2018-01-01T16:01:52.660Z,6.82
2018-01-01T16:04:21.344Z,6.90
2018-01-01T16:06:49.626Z,7.08
2018-01-01T16:09:18.758Z,7.14
2018-01-01T16:11:48.440Z,7.21
2018-01-01T16:14:16.609Z,7.09
2018-01-01T16:16:44.841Z,7.01
2018-01-01T16:19:13.169Z,6.94
2018-01-01T16:21:43.011Z,6.87
2018-01-01T16:24:12.453Z,6.87
2018-01-01T16:26:40.898Z,6.90
2018-01-01T16:29:10.887Z,6.85
2018-01-01T16:31:39.084Z,6.89
2018-01-01T16:34:08.047Z,6.82
2018-01-01T16:36:36.214Z,6.78
2018-01-01T16:39:04.525Z,6.77
2018-01-01T16:41:33.490Z,6.76
2018-01-01T16:44:01.650Z,6.79
2018-01-01T16:46:29.875Z,6.86
2018-01-01T16:48:58.933Z,6.71
2018-01-01T16:51:27.101Z,6.69
2018-01-01T16:53:55.410Z,6.63
2018-01-01T16:56:23.574Z,6.57
2018-01-01T16:58:51.772Z,6.52
2018-01-01T17:01:19.937Z,6.55
2018-01-01T17:03:48.198Z,6.51
2018-01-01T17:06:16.404Z,6.46
2018-01-01T17:08:44.589Z,6.47
2018-01-01T17:11:13.515Z,6.48
2018-01-01T17:13:41.735Z,6.48
2018-01-01T17:16:09.963Z,6.50
2018-01-01T17:18:38.190Z,6.50
2018-01-01T17:21:06.389Z,6.51
2018-01-01T17:23:34.628Z,6.47
2018-01-01T17:26:03.551Z,6.46
2018-01-01T17:28:31.738Z,6.44
2018-01-01T17:30:59.927Z,6.44
2018-01-01T17:33:28.133Z,6.44
2018-01-01T17:35:57.102Z,6.44
2018-01-01T17:38:25.296Z,6.43
2018-01-01T17:40:54.292Z,6.43
2018-01-01T17:43:23.307Z,6.43
2018-01-01T17:45:51.487Z,6.40
2018-01-01T17:48:19.681Z,6.38
2018-01-01T17:50:47.940Z,6.40
2018-01-01T17:53:16.154Z,6.33
2018-01-01T17:55:44.371Z,6.34
2018-01-01T17:58:13.374Z,6.31
2018-01-01T18:00:41.673Z,6.29
2018-01-01T18:03:09.867Z,6.28
2018-01-01T18:05:38.073Z,6.27
2018-01-01T18:08:06.256Z,6.31
2018-01-01T18:10:35.200Z,6.33
2018-01-01T18:13:03.384Z,6.30
2018-01-01T18:15:31.617Z,6.29
2018-01-01T18:17:59.792Z,6.31
2018-01-01T18:20:27.961Z,6.30
2018-01-01T18:22:56.940Z,6.32
2018-01-01T18:25:25.916Z,6.32
2018-01-01T18:27:54.094Z,6.32
2018-01-01T18:30:22.381Z,6.35
2018-01-01T18:32:50.580Z,6.43
2018-01-01T18:35:19.542Z,6.42
2018-01-01T18:37:47.698Z,6.43
2018-01-01T18:40:15.867Z,6.46
2018-01-01T18:42:44.035Z,6.51
2018-01-01T18:45:12.195Z,6.58
2018-01-01T18:47:40.350Z,6.60
2018-01-01T18:50:08.510Z,6.58
2018-01-01T18:52:37.443Z,6.55
2018-01-01T18:55:05.612Z,6.51
2018-01-01T18:57:33.778Z,6.53
2018-01-01T19:00:01.931Z,6.58
2018-01-01T19:02:30.869Z,6.54
2018-01-01T19:04:59.044Z,6.52
2018-01-01T19:07:27.217Z,6.48
2018-01-01T19:09:55.450Z,6.46
2018-01-01T19:12:23.734Z,6.45
2018-01-01T19:14:51.899Z,6.43
2018-01-01T19:17:20.838Z,6.39
2018-01-01T19:19:49.075Z,6.38
2018-01-01T19:22:17.240Z,6.38
2018-01-01T19:24:46.171Z,6.38
2018-01-01T19:27:14.338Z,6.36
2018-01-01T19:29:42.532Z,6.35
2018-01-01T19:32:13.176Z,6.38
2018-01-01T19:34:41.339Z,6.36
2018-01-01T19:37:10.373Z,6.35
2018-01-01T19:39:40.188Z,6.42
2018-01-01T19:42:10.181Z,6.34
2018-01-01T19:44:39.472Z,6.33
2018-01-01T19:47:08.734Z,6.28
2018-01-01T19:49:37.750Z,6.25
2018-01-01T19:52:05.915Z,6.22
2018-01-01T19:54:34.098Z,6.21
2018-01-01T19:57:02.506Z,6.20
2018-01-01T19:59:31.730Z,6.18
2018-01-01T20:02:01.875Z,6.21
2018-01-01T20:04:30.871Z,6.17
2018-01-01T20:07:00.089Z,6.20
2018-01-01T20:09:28.369Z,6.18
2018-01-01T20:11:57.566Z,6.18
2018-01-01T20:14:25.794Z,6.17
2018-01-01T20:16:54.721Z,6.17
2018-01-01T20:19:23.034Z,6.16
2018-01-01T20:21:52.131Z,6.16
2018-01-01T20:24:21.590Z,6.12
2018-01-01T20:26:50.754Z,6.14
2018-01-01T20:29:20.709Z,6.03
2018-01-01T20:31:48.884Z,5.92
2018-01-01T20:34:17.171Z,5.94
2018-01-01T20:36:45.436Z,5.85
2018-01-01T20:39:13.650Z,5.85
2018-01-01T20:41:43.049Z,5.85
2018-01-01T20:44:12.122Z,5.90
2018-01-01T20:46:41.496Z,5.93
2018-01-01T20:49:09.751Z,5.96
2018-01-01T20:51:38.043Z,5.90
2018-01-01T20:54:06.986Z,5.88
2018-01-01T20:56:35.170Z,5.86
2018-01-01T20:59:03.464Z,5.93
2018-01-01T21:01:31.707Z,5.91
2018-01-01T21:03:59.888Z,5.91
2018-01-01T21:06:28.087Z,5.93
2018-01-01T21:08:56.285Z,5.94
2018-01-01T21:11:25.285Z,5.95
2018-01-01T21:13:53.606Z,5.96
2018-01-01T21:16:21.807Z,5.92
2018-01-01T21:18:50.044Z,5.90
2018-01-01T21:21:18.221Z,5.90
2018-01-01T22:39:44.214Z,5.13
2018-01-01T22:42:12.454Z,5.20
2018-01-01T22:44:40.712Z,5.24
2018-01-01T22:47:09.020Z,5.32
2018-01-01T22:49:37.312Z,5.37
2018-01-01T22:52:05.592Z,5.36
2018-01-01T22:54:33.835Z,5.37
2018-01-01T22:57:02.050Z,5.42
2018-01-01T22:59:30.330Z,5.43
2018-01-01T23:01:58.590Z,5.37
2018-01-01T23:04:26.824Z,5.38
2018-01-01T23:06:54.997Z,5.44
2018-01-01T23:09:23.180Z,5.39
2018-01-01T23:11:51.409Z,5.38
2018-01-01T23:14:20.385Z,5.36
2018-01-01T23:16:48.600Z,5.33
2018-01-01T23:19:16.807Z,5.35
2018-01-01T23:21:45.007Z,5.33
2018-01-01T23:24:13.175Z,5.29
2018-01-01T23:26:41.346Z,5.30
2018-01-01T23:29:09.585Z,5.27
2018-01-01T23:31:37.804Z,5.26
2018-01-01T23:34:06.044Z,5.24
2018-01-01T23:36:34.239Z,5.24
2018-01-01T23:39:02.483Z,5.19
2018-01-01T23:41:30.724Z,5.17
2018-01-01T23:43:58.924Z,5.17
2018-01-01T23:46:27.928Z,5.19
2018-01-01T23:48:56.186Z,5.17
2018-01-01T23:51:25.113Z,5.15
2018-01-01T23:53:53.334Z,5.14
2018-01-01T23:56:21.508Z,5.13
2018-01-01T23:58:49.849Z,5.08
